Time;durP1;ratioP1;P1;durP2;ratioP2;P2;SDS_P1;SDS_P2;PMS_P1;PMS_P2;Temp;Humidity;BMP_temperature;BMP_pressure;BME280_temperature;BME280_humidity;BME280_pressure;Samples;Min_cycle;Max_cycle;Signal;HPM_P1;HPM_P2
2024/01/30 00:01:49;;;;;;;12.97;7.13;;;;;;;2.56;100.00;102481.75;5000441;28;20888;-73
2024/01/30 00:04:17;;;;;;;12.43;7.13;;;;;;;2.54;100.00;102486.41;5001367;28;20193;-73
2024/01/30 00:06:44;;;;;;;13.07;7.03;;;;;;;2.50;100.00;102483.44;5001225;28;20303;-73
2024/01/30 00:09:10;;;;;;;12.03;6.60;;;;;;;2.49;100.00;102475.88;5003326;28;20201;-73
2024/01/30 00:11:37;;;;;;;15.33;7.00;;;;;;;2.48;100.00;102476.88;5000494;28;20205;-72
2024/01/30 00:14:04;;;;;;;12.80;7.13;;;;;;;2.46;100.00;102479.72;5002715;28;20591;-73
2024/01/30 00:16:30;;;;;;;15.23;6.80;;;;;;;2.44;100.00;102475.75;5001440;28;20220;-73
2024/01/30 00:18:57;;;;;;;14.47;7.30;;;;;;;2.42;100.00;102477.78;5002269;28;20219;-73
2024/01/30 00:21:26;;;;;;;10.23;6.10;;;;;;;2.39;100.00;102479.00;5007491;28;20204;-73
2024/01/30 00:23:52;;;;;;;11.83;6.77;;;;;;;2.37;100.00;102482.88;5002970;28;20201;-71
2024/01/30 00:26:19;;;;;;;12.47;6.90;;;;;;;2.35;100.00;102484.91;5000224;28;20228;-71
2024/01/30 00:28:45;;;;;;;12.53;6.90;;;;;;;2.32;100.00;102477.53;5016781;28;20281;-71
2024/01/30 00:31:12;;;;;;;10.97;6.73;;;;;;;2.29;100.00;102472.78;5001635;28;20197;-71
2024/01/30 00:33:39;;;;;;;11.53;6.87;;;;;;;2.26;100.00;102478.44;5001045;28;20319;-71
2024/01/30 00:36:06;;;;;;;12.43;6.80;;;;;;;2.22;100.00;102467.66;5001928;28;20695;-71
2024/01/30 00:38:34;;;;;;;16.13;7.93;;;;;;;2.21;100.00;102473.91;5002488;28;20235;-71
2024/01/30 00:41:01;;;;;;;14.17;7.67;;;;;;;2.16;100.00;102484.19;4999079;28;20208;-71
2024/01/30 00:43:28;;;;;;;11.63;6.93;;;;;;;2.14;100.00;102475.78;4999120;28;20297;-73
2024/01/30 00:45:55;;;;;;;13.87;7.43;;;;;;;2.12;100.00;102474.44;4999356;28;20216;-71
2024/01/30 00:48:21;;;;;;;12.13;6.63;;;;;;;2.10;100.00;102466.06;5002708;28;20206;-71
2024/01/30 00:50:48;;;;;;;14.80;7.83;;;;;;;2.08;100.00;102470.69;5002091;28;20575;-71
2024/01/30 00:53:15;;;;;;;13.37;7.37;;;;;;;2.08;100.00;102468.88;5000468;28;20296;-74
2024/01/30 00:55:42;;;;;;;15.37;7.83;;;;;;;2.06;100.00;102470.91;5002468;28;20224;-73
2024/01/30 00:58:09;;;;;;;17.17;8.57;;;;;;;2.06;100.00;102464.91;5001858;28;20224;-73
2024/01/30 01:00:36;;;;;;;15.60;8.50;;;;;;;2.05;100.00;102482.38;4999812;28;20745;-73
2024/01/30 01:03:02;;;;;;;15.13;8.07;;;;;;;2.03;100.00;102481.00;5002494;28;20220;-73
2024/01/30 01:05:28;;;;;;;15.00;9.00;;;;;;;1.99;100.00;102475.44;5001373;28;20224;-73
2024/01/30 01:07:55;;;;;;;14.43;8.00;;;;;;;1.99;100.00;102474.63;5003353;28;20189;-73
2024/01/30 01:10:22;;;;;;;15.00;8.33;;;;;;;1.97;100.00;102476.69;5002866;28;20204;-73
2024/01/30 01:12:50;;;;;;;14.73;8.47;;;;;;;1.94;100.00;102474.50;5001030;28;20200;-71
2024/01/30 01:15:17;;;;;;;11.77;8.17;;;;;;;1.91;100.00;102472.34;5001209;28;20243;-71
2024/01/30 01:17:43;;;;;;;16.07;8.10;;;;;;;1.90;100.00;102470.75;5001416;28;20273;-71
2024/01/30 01:20:10;;;;;;;15.70;7.23;;;;;;;1.88;100.00;102473.56;5005843;28;20208;-71
2024/01/30 01:22:38;;;;;;;13.97;8.50;;;;;;;1.86;100.00;102461.78;5001643;28;20201;-71
2024/01/30 01:25:06;;;;;;;15.87;8.53;;;;;;;1.85;100.00;102466.22;5004329;28;20199;-73
2024/01/30 01:27:34;;;;;;;15.20;8.93;;;;;;;1.82;100.00;102466.66;5000854;28;20229;-71
2024/01/30 01:30:04;;;;;;;16.03;8.23;;;;;;;1.82;100.00;102468.47;5002537;28;20203;-71
2024/01/30 01:32:31;;;;;;;11.77;7.80;;;;;;;1.81;100.00;102467.66;5001774;28;20281;-71
2024/01/30 01:34:58;;;;;;;14.93;8.73;;;;;;;1.81;100.00;102465.06;5000775;28;20255;-71
2024/01/30 01:37:26;;;;;;;13.53;8.10;;;;;;;1.81;100.00;102452.03;4997936;28;20213;-71
2024/01/30 01:39:53;;;;;;;14.63;8.83;;;;;;;1.81;100.00;102457.25;5001558;28;20215;-71
2024/01/30 01:42:20;;;;;;;19.03;8.63;;;;;;;1.81;100.00;102454.66;5006123;28;20682;-71
2024/01/30 01:44:47;;;;;;;13.13;7.97;;;;;;;1.82;100.00;102452.84;5005438;28;20258;-71
2024/01/30 01:47:16;;;;;;;17.27;8.40;;;;;;;1.81;100.00;102451.25;5005075;28;20220;-71
2024/01/30 01:49:43;;;;;;;14.50;8.50;;;;;;;1.83;100.00;102450.00;5005182;28;20722;-71
2024/01/30 01:52:10;;;;;;;12.83;8.10;;;;;;;1.85;100.00;102449.78;5006901;28;20661;-71
2024/01/30 01:54:37;;;;;;;15.93;8.20;;;;;;;1.85;100.00;102444.56;5006449;28;20672;-72
2024/01/30 01:57:04;;;;;;;15.17;8.97;;;;;;;1.88;100.00;102449.34;5007130;28;20236;-72
2024/01/30 01:59:31;;;;;;;15.97;8.07;;;;;;;1.90;100.00;102448.13;5005274;28;20212;-72
2024/01/30 02:01:58;;;;;;;17.73;8.90;;;;;;;1.95;100.00;102450.03;5000658;28;20201;-72
2024/01/30 02:04:26;;;;;;;17.63;8.87;;;;;;;1.97;100.00;102451.41;5020905;28;20256;-72
2024/01/30 02:06:52;;;;;;;15.87;8.83;;;;;;;2.00;100.00;102452.78;5005521;28;20217;-72
2024/01/30 02:09:19;;;;;;;16.43;9.40;;;;;;;2.03;100.00;102445.31;5002945;28;20668;-72
2024/01/30 02:11:46;;;;;;;14.90;8.17;;;;;;;2.06;100.00;102444.88;5003634;28;20220;-72
2024/01/30 02:14:12;;;;;;;16.77;8.97;;;;;;;2.09;100.00;102449.66;5004817;28;20802;-72
2024/01/30 02:16:39;;;;;;;11.67;7.73;;;;;;;2.11;100.00;102444.19;5003396;28;20220;-72
2024/01/30 02:19:06;;;;;;;15.37;8.37;;;;;;;2.12;100.00;102443.16;5005694;28;20210;-72
2024/01/30 02:21:34;;;;;;;14.77;8.60;;;;;;;2.14;100.00;102444.53;5005073;28;20361;-72
2024/01/30 02:24:01;;;;;;;11.83;8.10;;;;;;;2.14;100.00;102449.75;5005058;28;20208;-72
2024/01/30 02:26:27;;;;;;;16.77;8.10;;;;;;;2.14;100.00;102452.34;5004398;28;20228;-72
2024/01/30 02:28:54;;;;;;;15.13;8.40;;;;;;;2.16;100.00;102449.53;5003513;28;20193;-72
2024/01/30 02:31:20;;;;;;;13.90;7.13;;;;;;;2.16;100.00;102445.13;5002338;28;20208;-72
2024/01/30 02:33:47;;;;;;;13.77;7.97;;;;;;;2.16;100.00;102445.13;5002658;28;20845;-72
2024/01/30 02:36:15;;;;;;;14.77;7.83;;;;;;;2.16;100.00;102437.28;5006229;28;20217;-72
2024/01/30 02:38:43;;;;;;;12.67;7.63;;;;;;;2.17;100.00;102449.31;5001149;28;20223;-72
2024/01/30 02:41:09;;;;;;;16.23;8.60;;;;;;;2.17;100.00;102453.72;5001779;28;20683;-72
2024/01/30 02:43:36;;;;;;;11.93;7.53;;;;;;;2.17;100.00;102445.88;5002626;28;20216;-72
2024/01/30 02:46:02;;;;;;;15.63;8.20;;;;;;;2.18;100.00;102450.09;5005488;28;20232;-72
2024/01/30 02:48:29;;;;;;;15.93;8.07;;;;;;;2.17;100.00;102435.47;5003618;28;20193;-72
2024/01/30 02:50:56;;;;;;;13.10;7.17;;;;;;;2.18;100.00;102440.47;5004286;28;20196;-72
2024/01/30 02:53:23;;;;;;;13.33;7.47;;;;;;;2.18;100.00;102440.47;5002783;28;20287;-72
2024/01/30 02:55:50;;;;;;;13.93;8.07;;;;;;;2.19;100.00;102441.25;5002577;28;20217;-72
2024/01/30 02:58:17;;;;;;;11.03;7.33;;;;;;;2.17;100.00;102438.06;5002912;28;20591;-72
2024/01/30 03:00:44;;;;;;;14.33;8.37;;;;;;;2.16;100.00;102437.28;5004215;28;20200;-72
2024/01/30 03:03:10;;;;;;;15.23;8.33;;;;;;;2.16;100.00;102447.72;5004218;28;20196;-72
2024/01/30 03:05:37;;;;;;;14.30;7.93;;;;;;;2.15;100.00;102437.50;5001408;28;20917;-72
2024/01/30 03:08:05;;;;;;;15.77;7.87;;;;;;;2.15;100.00;102442.72;5003969;28;20201;-72
2024/01/30 03:10:32;;;;;;;13.77;7.50;;;;;;;2.13;100.00;102437.72;5001255;28;20204;-72
2024/01/30 03:13:00;;;;;;;14.27;7.70;;;;;;;2.11;100.00;102437.19;5003238;28;20200;-72
2024/01/30 03:15:26;;;;;;;13.70;8.13;;;;;;;2.10;100.00;102438.19;5002998;28;20220;-72
2024/01/30 03:17:54;;;;;;;13.80;8.03;;;;;;;2.09;100.00;102436.63;5001488;28;20599;-72
2024/01/30 03:20:20;;;;;;;14.33;7.90;;;;;;;2.09;100.00;102438.41;5004663;28;20215;-72
2024/01/30 03:22:47;;;;;;;14.33;7.73;;;;;;;2.07;100.00;102436.03;5004578;28;20216;-73
2024/01/30 03:25:13;;;;;;;11.87;7.67;;;;;;;2.05;100.00;102430.25;5001950;28;20723;-72
2024/01/30 03:27:40;;;;;;;15.73;8.17;;;;;;;2.05;100.00;102437.25;5004047;28;20204;-72
2024/01/30 03:30:09;;;;;;;13.27;7.63;;;;;;;2.02;100.00;102428.09;5002249;28;20682;-72
2024/01/30 03:32:36;;;;;;;13.30;8.50;;;;;;;2.01;100.00;102425.69;5016335;28;20197;-72
2024/01/30 03:35:02;;;;;;;14.10;8.00;;;;;;;2.00;100.00;102430.13;4999265;28;20216;-72
2024/01/30 03:37:29;;;;;;;13.40;7.77;;;;;;;1.99;100.00;102423.34;5002802;28;20276;-72
2024/01/30 03:39:55;;;;;;;17.70;8.07;;;;;;;2.00;100.00;102424.13;5000312;28;20259;-72
2024/01/30 03:42:23;;;;;;;15.00;8.57;;;;;;;1.98;100.00;102418.34;5000215;28;20231;-72
2024/01/30 03:44:51;;;;;;;14.10;8.17;;;;;;;1.99;100.00;102428.56;5001469;28;20634;-72
2024/01/30 03:47:19;;;;;;;13.90;8.07;;;;;;;2.00;100.00;102424.13;5001925;28;20211;-72
2024/01/30 03:49:46;;;;;;;19.47;8.57;;;;;;;2.01;100.00;102423.09;5004418;28;20972;-72
2024/01/30 03:52:12;;;;;;;16.77;8.20;;;;;;;2.02;100.00;102424.72;5003461;28;20196;-72
2024/01/30 03:54:39;;;;;;;14.87;8.43;;;;;;;2.01;100.00;102417.88;5001937;28;20215;-72
2024/01/30 03:57:06;;;;;;;10.97;7.70;;;;;;;2.00;100.00;102422.31;5003301;28;20228;-72
2024/01/30 03:59:32;;;;;;;16.73;7.87;;;;;;;1.99;100.00;102420.75;5005573;28;20220;-72
2024/01/30 04:01:59;;;;;;;16.07;7.87;;;;;;;1.99;100.00;102423.34;5017400;28;20216;-73
2024/01/30 04:04:27;;;;;;;13.73;8.03;;;;;;;1.97;100.00;102417.53;4998961;28;20269;-72
2024/01/30 04:06:54;;;;;;;19.00;9.03;;;;;;;1.97;100.00;102424.59;5002566;28;20224;-72
2024/01/30 04:09:20;;;;;;;14.70;7.73;;;;;;;1.95;100.00;102419.59;5003252;28;20288;-72
2024/01/30 04:11:47;;;;;;;14.60;7.90;;;;;;;1.94;100.00;102414.59;5001192;28;20203;-72
2024/01/30 04:14:13;;;;;;;11.80;7.73;;;;;;;1.92;100.00;102425.22;5002315;28;20236;-72
2024/01/30 04:16:40;;;;;;;12.63;7.03;;;;;;;1.89;100.00;102404.84;5001520;28;20726;-72
2024/01/30 04:19:06;;;;;;;14.33;8.00;;;;;;;1.89;100.00;102417.88;5001306;28;20219;-72
2024/01/30 04:21:34;;;;;;;16.00;8.40;;;;;;;1.89;100.00;102414.47;5001522;28;20200;-72
2024/01/30 04:24:00;;;;;;;18.50;8.33;;;;;;;1.88;100.00;102418.09;5001887;28;20208;-72
2024/01/30 04:26:27;;;;;;;15.67;9.10;;;;;;;1.86;100.00;102420.91;5003083;28;20227;-72
2024/01/30 04:28:54;;;;;;;17.13;8.27;;;;;;;1.86;100.00;102420.13;5001640;28;20552;-72
2024/01/30 04:31:20;;;;;;;15.70;8.33;;;;;;;1.86;100.00;102413.09;5004175;28;20273;-72
2024/01/30 04:33:47;;;;;;;15.90;9.00;;;;;;;1.86;100.00;102415.72;5000842;28;20204;-72
2024/01/30 04:36:13;;;;;;;15.17;9.03;;;;;;;1.85;100.00;102424.53;5003187;28;20216;-72
2024/01/30 04:38:41;;;;;;;15.97;9.17;;;;;;;1.85;100.00;102423.75;5001184;28;20212;-72
2024/01/30 04:41:08;;;;;;;17.80;8.40;;;;;;;1.88;100.00;102418.09;5000833;28;20224;-72
2024/01/30 04:43:35;;;;;;;13.00;8.47;;;;;;;1.87;100.00;102424.34;5003530;28;20196;-72
2024/01/30 04:46:01;;;;;;;14.07;8.47;;;;;;;1.86;100.00;102425.31;4999145;28;20287;-72
2024/01/30 04:48:28;;;;;;;14.80;8.50;;;;;;;1.85;100.00;102414.13;5001235;28;20219;-73
2024/01/30 04:50:55;;;;;;;13.50;8.70;;;;;;;1.85;100.00;102419.34;5016647;28;20198;-72
2024/01/30 04:53:22;;;;;;;15.67;8.40;;;;;;;1.85;100.00;102410.72;4997428;28;20212;-72
2024/01/30 04:55:50;;;;;;;15.47;8.37;;;;;;;1.84;100.00;102411.75;5003552;28;20243;-72
2024/01/30 04:58:16;;;;;;;14.90;8.13;;;;;;;1.82;100.00;102411.97;5003417;28;20984;-72
2024/01/30 05:00:43;;;;;;;16.47;8.23;;;;;;;1.81;100.00;102410.38;5002758;28;20222;-72
2024/01/30 05:03:09;;;;;;;14.27;8.00;;;;;;;1.80;100.00;102408.78;5002281;28;20206;-72
2024/01/30 05:05:36;;;;;;;14.07;8.40;;;;;;;1.79;100.00;102409.81;5001404;28;20221;-72
2024/01/30 05:08:03;;;;;;;15.37;8.50;;;;;;;1.78;100.00;102413.44;5017366;28;20212;-72
2024/01/30 05:10:29;;;;;;;17.10;8.50;;;;;;;1.75;100.00;102411.28;5001163;28;20196;-72
2024/01/30 05:12:57;;;;;;;18.70;9.10;;;;;;;1.73;100.00;102409.91;5000492;28;20293;-72
2024/01/30 05:15:24;;;;;;;15.40;8.90;;;;;;;1.72;100.00;102409.09;5028720;28;20311;-72
2024/01/30 05:17:51;;;;;;;18.20;9.57;;;;;;;1.71;100.00;102401.53;5004504;28;20212;-72
2024/01/30 05:20:16;;;;;;;26.97;13.00;;;;;;;1.69;100.00;102411.34;5008345;28;20224;-72
2024/01/30 05:22:44;;;;;;;21.67;10.90;;;;;;;1.66;100.00;102396.97;5006218;28;20603;-72
2024/01/30 05:25:11;;;;;;;15.73;8.80;;;;;;;1.66;100.00;102402.19;5005967;28;20224;-72
2024/01/30 05:27:38;;;;;;;17.03;7.80;;;;;;;1.65;100.00;102405.00;5005699;28;20283;-72
2024/01/30 05:30:07;;;;;;;14.07;8.03;;;;;;;1.63;100.00;102400.03;5009335;28;20672;-72
2024/01/30 05:32:34;;;;;;;18.47;9.23;;;;;;;1.63;100.00;102407.84;5006694;28;20223;-72
2024/01/30 05:35:00;;;;;;;17.57;8.73;;;;;;;1.62;100.00;102405.47;5007877;28;20218;-72
2024/01/30 05:37:27;;;;;;;13.97;8.97;;;;;;;1.60;100.00;102402.25;5007491;28;20236;-72
2024/01/30 05:39:53;;;;;;;16.83;9.10;;;;;;;1.57;100.00;102406.09;5008101;28;20692;-72
2024/01/30 05:42:20;;;;;;;13.47;8.77;;;;;;;1.55;100.00;102402.13;5011157;28;20193;-72
2024/01/30 05:44:46;;;;;;;15.87;9.00;;;;;;;1.54;100.00;102403.97;5026024;28;20212;-73
2024/01/30 05:47:15;;;;;;;16.90;8.90;;;;;;;1.52;100.00;102405.97;5015761;28;20219;-72
2024/01/30 05:49:42;;;;;;;16.30;8.77;;;;;;;1.50;100.00;102404.63;5009307;28;20197;-72
2024/01/30 05:52:08;;;;;;;16.03;8.70;;;;;;;1.49;100.00;102403.84;5009587;28;20213;-72
2024/01/30 05:54:35;;;;;;;12.73;8.73;;;;;;;1.47;100.00;102405.06;5008735;28;20207;-72
2024/01/30 05:57:02;;;;;;;16.40;9.40;;;;;;;1.47;100.00;102403.25;5008085;28;20223;-72
2024/01/30 05:59:28;;;;;;;17.07;9.37;;;;;;;1.45;100.00;102407.09;5010301;28;20212;-72
2024/01/30 06:01:55;;;;;;;16.43;9.30;;;;;;;1.45;100.00;102412.31;5007618;28;20211;-72
2024/01/30 06:04:23;;;;;;;15.70;9.00;;;;;;;1.44;100.00;102408.91;5012093;28;20204;-72
2024/01/30 06:06:49;;;;;;;19.70;10.00;;;;;;;1.44;100.00;102405.50;5008645;28;20223;-72
2024/01/30 06:09:16;;;;;;;17.17;9.27;;;;;;;1.43;100.00;102409.91;5005906;28;20201;-72
2024/01/30 06:11:42;;;;;;;18.03;9.17;;;;;;;1.42;100.00;102402.31;5011403;28;20291;-72
2024/01/30 06:14:09;;;;;;;14.83;9.07;;;;;;;1.41;100.00;102395.53;5014202;28;20201;-72
2024/01/30 06:16:36;;;;;;;14.57;8.77;;;;;;;1.40;100.00;102396.56;5009312;28;20216;-72
2024/01/30 06:19:02;;;;;;;14.17;8.80;;;;;;;1.38;100.00;102398.56;5011054;28;20209;-73
2024/01/30 06:21:30;;;;;;;19.73;9.33;;;;;;;1.37;100.00;102394.38;5012507;28;20311;-72
2024/01/30 06:23:57;;;;;;;16.33;8.77;;;;;;;1.36;100.00;102393.56;5007957;28;20287;-72
2024/01/30 06:26:23;;;;;;;17.70;9.33;;;;;;;1.36;100.00;102395.41;5007971;28;20221;-72
2024/01/30 06:28:50;;;;;;;16.10;9.90;;;;;;;1.35;100.00;102399.03;5009466;28;20202;-72
2024/01/30 06:31:16;;;;;;;18.27;9.90;;;;;;;1.33;100.00;102401.03;5007296;28;20195;-72
2024/01/30 06:33:43;;;;;;;19.77;9.33;;;;;;;1.31;100.00;102400.47;5006614;28;20200;-72
2024/01/30 06:36:09;;;;;;;15.83;8.33;;;;;;;1.30;100.00;102402.28;5011611;28;20219;-72
2024/01/30 06:38:37;;;;;;;22.17;9.57;;;;;;;1.29;100.00;102402.47;5010288;28;20329;-72
2024/01/30 06:41:04;;;;;;;14.63;8.57;;;;;;;1.28;100.00;102401.72;5009799;28;21011;-72
2024/01/30 06:43:30;;;;;;;19.10;9.90;;;;;;;1.29;100.00;102407.69;5010814;28;20232;-72
2024/01/30 06:45:57;;;;;;;15.53;9.03;;;;;;;1.29;100.00;102412.91;5009110;28;20223;-72
2024/01/30 06:48:24;;;;;;;17.40;9.47;;;;;;;1.31;100.00;102405.69;5010624;28;20243;-72
2024/01/30 06:50:51;;;;;;;14.27;8.70;;;;;;;1.30;100.00;102415.28;5009603;28;20208;-72
2024/01/30 06:53:17;;;;;;;16.63;9.60;;;;;;;1.32;100.00;102413.28;5007586;28;20603;-72
2024/01/30 06:55:45;;;;;;;16.40;9.87;;;;;;;1.32;100.00;102412.47;5009196;28;20764;-72
2024/01/30 06:58:12;;;;;;;17.50;10.20;;;;;;;1.29;100.00;102416.31;5009110;28;20204;-72
2024/01/30 07:00:39;;;;;;;21.27;12.53;;;;;;;1.30;100.00;102410.06;5009384;28;20267;-72
2024/01/30 07:03:06;;;;;;;19.13;11.77;;;;;;;1.30;100.00;102414.50;5033744;28;20196;-72
2024/01/30 07:05:32;;;;;;;21.27;13.23;;;;;;;1.29;100.00;102413.69;5013084;28;20220;-72
2024/01/30 07:07:59;;;;;;;21.33;13.70;;;;;;;1.30;100.00;102420.47;5009708;28;20196;-72
2024/01/30 07:10:25;;;;;;;27.03;14.33;;;;;;;1.30;100.00;102414.50;5023892;28;20197;-72
2024/01/30 07:12:53;;;;;;;26.73;14.47;;;;;;;1.31;100.00;102419.47;5008455;28;20690;-72
2024/01/30 07:15:20;;;;;;;23.67;13.57;;;;;;;1.33;100.00;102414.84;5006364;28;20659;-73
2024/01/30 07:17:47;;;;;;;19.03;10.50;;;;;;;1.35;100.00;102420.63;5008244;28;20205;-72
2024/01/30 07:20:13;;;;;;;21.13;10.13;;;;;;;1.38;100.00;102420.19;5022186;28;20225;-72
2024/01/30 07:22:41;;;;;;;15.80;10.30;;;;;;;1.41;100.00;102414.53;5009436;28;20200;-72
2024/01/30 07:25:08;;;;;;;19.83;10.70;;;;;;;1.43;100.00;102409.91;5006757;28;20545;-72
2024/01/30 07:27:34;;;;;;;21.77;10.23;;;;;;;1.48;100.00;102409.25;5009193;28;20205;-73
2024/01/30 07:30:02;;;;;;;19.87;10.43;;;;;;;1.54;100.00;102416.16;5005074;28;20192;-72
2024/01/30 07:32:29;;;;;;;18.20;9.73;;;;;;;1.57;100.00;102406.09;5009655;28;20696;-72
2024/01/30 07:34:55;;;;;;;18.77;10.50;;;;;;;1.61;100.00;102404.66;5023273;28;20196;-74
2024/01/30 07:37:22;;;;;;;16.97;10.30;;;;;;;1.66;100.00;102409.22;5009923;28;20215;-72
2024/01/30 07:39:48;;;;;;;18.80;10.33;;;;;;;1.71;100.00;102415.31;5004668;28;20762;-72
2024/01/30 07:42:16;;;;;;;20.67;11.00;;;;;;;1.78;100.00;102415.25;5005193;28;20208;-72
2024/01/30 07:44:42;;;;;;;16.80;9.47;;;;;;;1.83;100.00;102412.75;5009026;28;20284;-73
2024/01/30 07:47:10;;;;;;;17.07;9.93;;;;;;;1.91;100.00;102415.03;5005567;28;20212;-73
2024/01/30 07:49:37;;;;;;;19.33;10.13;;;;;;;1.96;100.00;102410.75;5007218;28;20202;-72
2024/01/30 07:52:05;;;;;;;21.07;10.90;;;;;;;2.00;100.00;102411.91;5007175;28;20541;-72
2024/01/30 07:54:33;;;;;;;19.03;10.63;;;;;;;2.07;100.00;102412.56;5005398;28;20259;-72
2024/01/30 07:56:59;;;;;;;20.67;10.87;;;;;;;2.14;100.00;102412.47;5006700;28;20227;-72
2024/01/30 07:59:26;;;;;;;23.80;10.60;;;;;;;2.18;100.00;102411.78;5007168;28;20212;-72
2024/01/30 08:01:53;;;;;;;19.20;8.87;;;;;;;2.25;100.00;102412.50;5009954;28;20204;-72
2024/01/30 08:04:21;;;;;;;17.70;9.93;;;;;;;2.31;100.00;102414.19;5007018;28;20196;-72
2024/01/30 08:06:47;;;;;;;18.03;9.97;;;;;;;2.38;100.00;102411.50;5005195;28;20224;-72
2024/01/30 08:09:15;;;;;;;17.37;9.27;;;;;;;2.45;100.00;102406.94;5005405;28;20205;-72
2024/01/30 08:11:42;;;;;;;17.67;9.20;;;;;;;2.50;100.00;102404.44;5005174;28;20737;-73
2024/01/30 08:14:08;;;;;;;16.90;9.30;;;;;;;2.57;100.00;102407.72;5005901;28;20224;-72
2024/01/30 08:16:35;;;;;;;16.50;9.73;;;;;;;2.63;100.00;102409.41;5010401;28;20224;-73
2024/01/30 08:19:01;;;;;;;17.07;9.07;;;;;;;2.70;100.00;102412.72;5005454;28;20203;-72
2024/01/30 08:21:29;;;;;;;13.07;8.57;;;;;;;2.77;100.00;102408.16;5004954;28;20204;-72
2024/01/30 08:23:56;;;;;;;17.63;8.83;;;;;;;2.84;100.00;102404.41;5006264;28;20197;-72
2024/01/30 08:26:22;;;;;;;17.13;8.93;;;;;;;2.91;100.00;102399.84;5004297;28;20225;-72
2024/01/30 08:28:50;;;;;;;13.37;7.90;;;;;;;2.97;100.00;102409.38;5008701;28;20295;-72
2024/01/30 08:31:17;;;;;;;16.83;8.73;;;;;;;3.06;100.00;102410.59;5002725;28;20227;-72
2024/01/30 08:33:43;;;;;;;17.10;8.43;;;;;;;3.13;100.00;102413.88;5004047;28;20659;-72
2024/01/30 08:36:10;;;;;;;13.00;8.47;;;;;;;3.19;100.00;102423.38;5005337;28;20213;-73
2024/01/30 08:38:38;;;;;;;13.10;8.77;;;;;;;3.28;100.00;102415.97;5019587;28;20748;-73
2024/01/30 08:41:05;;;;;;;13.40;7.90;;;;;;;3.33;100.00;102411.63;5007016;28;20723;-72
2024/01/30 08:43:31;;;;;;;17.03;8.70;;;;;;;3.40;100.00;102414.91;5006227;28;20965;-73
2024/01/30 08:46:00;;;;;;;14.47;7.77;;;;;;;3.47;100.00;102410.34;5006465;28;20232;-72
2024/01/30 08:48:26;;;;;;;15.20;7.93;;;;;;;3.53;100.00;102408.63;5004523;28;20707;-74
2024/01/30 08:50:53;;;;;;;13.87;7.97;;;;;;;3.57;100.00;102407.91;5005952;28;20196;-72
2024/01/30 08:53:19;;;;;;;13.33;8.03;;;;;;;3.64;100.00;102397.31;5003202;28;20252;-73
2024/01/30 08:55:47;;;;;;;15.60;8.47;;;;;;;3.69;100.00;102400.78;5006356;28;21065;-72
2024/01/30 08:58:15;;;;;;;18.27;8.90;;;;;;;3.74;100.00;102393.03;5005065;28;20262;-73
2024/01/30 09:00:41;;;;;;;13.50;7.53;;;;;;;3.80;100.00;102402.59;5006832;28;20549;-72
2024/01/30 09:03:08;;;;;;;13.37;8.37;;;;;;;3.86;100.00;102395.59;5004786;28;20188;-73
2024/01/30 09:05:35;;;;;;;13.40;7.80;;;;;;;3.92;100.00;102399.88;5004253;28;20221;-72
2024/01/30 09:08:01;;;;;;;14.43;7.87;;;;;;;3.98;100.00;102401.53;5007018;28;20232;-73
2024/01/30 09:10:28;;;;;;;14.53;7.47;;;;;;;4.03;100.00;102399.81;5004248;28;20201;-72
2024/01/30 09:12:56;;;;;;;13.47;7.97;;;;;;;4.10;100.00;102399.66;5006822;28;20207;-73
2024/01/30 09:15:22;;;;;;;12.73;7.90;;;;;;;4.13;100.00;102396.56;5007339;28;20228;-73
2024/01/30 09:17:49;;;;;;;13.53;7.53;;;;;;;4.19;100.00;102404.25;5005911;28;20198;-73
2024/01/30 09:20:16;;;;;;;16.13;8.00;;;;;;;4.23;100.00;102405.34;4998339;28;20236;-73
2024/01/30 09:22:42;;;;;;;11.60;7.57;;;;;;;4.29;100.00;102406.19;5005597;28;20203;-73
2024/01/30 09:25:09;;;;;;;15.03;7.40;;;;;;;4.35;100.00;102405.28;5004315;28;20201;-72
2024/01/30 09:27:36;;;;;;;14.77;7.03;;;;;;;4.39;100.00;102398.50;5006304;28;20192;-73
2024/01/30 09:30:05;;;;;;;12.67;7.50;;;;;;;4.44;100.00;102407.22;5003585;28;20193;-72
2024/01/30 09:32:31;;;;;;;12.90;7.17;;;;;;;4.48;100.00;102410.97;5016218;28;20201;-72
2024/01/30 09:34:58;;;;;;;11.97;7.57;;;;;;;4.53;100.00;102408.41;5004357;28;20196;-72
2024/01/30 09:37:24;;;;;;;12.80;7.20;;;;;;;4.57;100.00;102403.50;5002772;28;20202;-72
2024/01/30 09:39:51;;;;;;;15.50;7.13;;;;;;;4.63;100.00;102410.38;5004824;28;20239;-73
2024/01/30 09:42:27;;;;;;;10.73;6.90;;;;;;;4.70;100.00;102419.63;5003456;28;20220;-73
2024/01/30 09:44:54;;;;;;;12.67;6.87;;;;;;;4.75;100.00;102417.06;5002577;28;20200;-72
2024/01/30 09:47:22;;;;;;;12.37;7.30;;;;;;;4.81;100.00;102423.19;5001354;28;20660;-72
2024/01/30 09:49:49;;;;;;;15.20;7.47;;;;;;;4.89;100.00;102415.69;5004006;28;20196;-72
2024/01/30 09:52:16;;;;;;;13.00;7.13;;;;;;;4.93;100.00;102418.63;5002288;28;20208;-72
2024/01/30 09:54:44;;;;;;;10.63;7.30;;;;;;;5.00;100.00;102413.97;5001504;28;20201;-72
2024/01/30 09:57:12;;;;;;;12.67;6.90;;;;;;;5.06;100.00;102413.00;5004635;28;20230;-72
2024/01/30 09:59:38;;;;;;;12.43;7.33;;;;;;;5.09;100.00;102410.72;5004300;28;20263;-72
2024/01/30 10:02:05;;;;;;;11.83;6.73;;;;;;;5.16;100.00;102405.25;5007060;28;20221;-72
2024/01/30 10:04:33;;;;;;;12.23;7.27;;;;;;;5.22;100.00;102399.84;5003064;28;20559;-73
2024/01/30 10:07:03;;;;;;;11.97;7.60;;;;;;;5.28;100.00;102380.53;5039369;28;20228;-73
2024/01/30 10:09:32;;;;;;;18.10;8.17;;;;;;;5.35;100.00;102377.72;5006425;28;20223;-72
2024/01/30 10:11:59;;;;;;;14.37;7.50;;;;;;;5.43;100.00;102372.03;5006610;28;20220;-73
2024/01/30 10:14:26;;;;;;;11.70;7.17;;;;;;;5.50;100.00;102383.13;5005684;28;20243;-72
2024/01/30 10:16:53;;;;;;;14.13;8.10;;;;;;;5.56;100.00;102392.59;5006158;28;20247;-72
2024/01/30 10:19:19;;;;;;;12.20;7.77;;;;;;;5.63;100.00;102387.94;5004934;28;20539;-73
2024/01/30 10:21:48;;;;;;;11.37;7.17;;;;;;;5.69;100.00;102387.75;5006446;28;20695;-72
2024/01/30 10:24:14;;;;;;;15.30;7.87;;;;;;;5.77;100.00;102383.88;5015653;28;20213;-73
2024/01/30 10:26:41;;;;;;;13.60;7.50;;;;;;;5.82;99.97;102374.28;5006241;28;20217;-73
2024/01/30 10:29:07;;;;;;;12.63;7.03;;;;;;;5.88;100.00;102370.66;5006105;28;20204;-72
2024/01/30 10:31:34;;;;;;;12.77;7.17;;;;;;;5.94;99.22;102369.63;5005069;28;20250;-73
2024/01/30 10:34:01;;;;;;;13.37;7.37;;;;;;;5.99;100.00;102369.69;5003827;28;20208;-73
2024/01/30 10:36:30;;;;;;;10.50;6.57;;;;;;;6.06;99.52;102370.25;5007871;28;20228;-73
2024/01/30 10:39:00;;;;;;;11.30;6.83;;;;;;;6.10;100.00;102363.47;5001680;28;20288;-72
2024/01/30 10:41:28;;;;;;;11.90;7.27;;;;;;;6.15;99.74;102358.25;5003976;28;20252;-73
2024/01/30 10:44:03;;;;;;;12.87;6.90;;;;;;;6.20;99.59;102365.34;5007123;28;20212;-73
2024/01/30 10:46:33;;;;;;;11.33;6.63;;;;;;;6.23;99.89;102352.53;5006383;28;20219;-72
2024/01/30 10:49:01;;;;;;;11.60;6.97;;;;;;;6.27;100.00;102355.44;5007363;28;20203;-72
2024/01/30 10:51:28;;;;;;;13.60;7.30;;;;;;;6.31;98.28;102364.41;5003936;28;20219;-73
2024/01/30 10:53:57;;;;;;;10.93;6.03;;;;;;;6.34;99.77;102361.25;5004208;28;20203;-73
2024/01/30 10:56:25;;;;;;;12.43;7.70;;;;;;;6.35;95.35;102355.75;5003754;28;20224;-72
2024/01/30 10:58:53;;;;;;;12.13;7.10;;;;;;;6.40;94.74;102355.78;5006304;28;20691;-73
2024/01/30 11:01:22;;;;;;;12.30;7.03;;;;;;;6.44;100.00;102351.59;5003270;28;20335;-72
2024/01/30 11:03:50;;;;;;;11.23;7.30;;;;;;;6.52;96.31;102364.22;5004873;28;20219;-72
2024/01/30 11:06:18;;;;;;;10.63;6.90;;;;;;;6.59;96.07;102358.75;5002199;28;20224;-73
2024/01/30 11:08:45;;;;;;;12.50;7.80;;;;;;;6.69;97.92;102348.31;5004636;28;20565;-72
2024/01/30 11:11:13;;;;;;;9.60;6.60;;;;;;;6.77;96.76;102353.06;5004381;28;20830;-72
2024/01/30 11:13:41;;;;;;;9.97;6.20;;;;;;;6.84;95.61;102340.50;5003383;28;20204;-73
2024/01/30 11:16:07;;;;;;;10.80;6.27;;;;;;;6.94;93.46;102340.53;5003410;28;20311;-73